createdAt,value
2017-09-23T11:00:19.657Z,7.40
2017-09-23T11:02:48.886Z,7.43
2017-09-23T11:05:17.270Z,6.93
2017-09-23T11:07:45.951Z,7.30
2017-09-23T11:10:14.372Z,6.57
2017-09-23T11:12:42.754Z,6.27
2017-09-23T11:15:11.810Z,6.33
2017-09-23T11:17:40.172Z,6.27
2017-09-23T11:20:08.526Z,6.30
2017-09-23T11:22:37.674Z,5.67
2017-09-23T11:25:06.039Z,5.60
2017-09-23T11:27:34.406Z,5.30
2017-09-23T11:30:03.281Z,5.17
2017-09-23T11:32:33.366Z,5.20
2017-09-23T11:35:01.724Z,5.60
2017-09-23T11:37:30.468Z,5.50
2017-09-23T11:39:59.818Z,13.03
2017-09-23T11:42:28.159Z,6.40
2017-09-23T11:44:57.093Z,6.40
2017-09-23T11:47:25.461Z,7.50
2017-09-23T11:49:54.654Z,6.20
2017-09-23T11:52:23.308Z,7.10
2017-09-23T11:54:52.429Z,6.40
2017-09-23T11:57:20.818Z,6.57
2017-09-23T11:59:49.458Z,6.40
2017-09-23T12:05:17.810Z,6.30
2017-09-23T12:07:46.126Z,7.87
2017-09-23T12:10:14.467Z,7.97
2017-09-23T12:12:43.818Z,7.63
2017-09-23T12:15:12.938Z,6.70
2017-09-23T12:17:41.744Z,7.03
2017-09-23T12:20:10.591Z,7.70
2017-09-23T12:22:39.781Z,8.07
2017-09-23T12:25:08.908Z,7.87
2017-09-23T12:27:38.696Z,10.27
2017-09-23T12:30:07.825Z,10.80
2017-09-23T12:32:36.186Z,13.57
2017-09-23T12:35:04.873Z,12.50
2017-09-23T12:37:33.263Z,15.70
2017-09-23T12:40:01.715Z,13.03
2017-09-23T12:42:30.511Z,13.50
2017-09-23T12:44:59.754Z,15.03
2017-09-23T12:47:28.090Z,14.57
2017-09-23T12:49:57.927Z,13.97
2017-09-23T12:52:26.572Z,14.97
2017-09-23T12:54:54.925Z,15.17
2017-09-23T12:57:24.342Z,14.50
2017-09-23T12:59:53.118Z,14.80
2017-09-23T13:02:21.575Z,14.60
2017-09-23T13:04:50.467Z,13.97
2017-09-23T13:07:18.877Z,13.20
2017-09-23T13:09:47.237Z,14.63
2017-09-23T13:12:17.279Z,13.20
2017-09-23T13:14:45.632Z,16.70
2017-09-23T13:17:14.649Z,16.67
2017-09-23T13:19:44.409Z,15.60
2017-09-23T13:22:12.793Z,14.13
2017-09-23T13:24:41.128Z,15.27
2017-09-23T13:27:09.837Z,16.17
2017-09-23T13:29:38.215Z,13.90
2017-09-23T13:32:07.333Z,14.20
2017-09-23T13:34:37.068Z,12.30
2017-09-23T13:37:05.413Z,13.60
2017-09-23T13:39:33.748Z,11.10
2017-09-23T13:42:02.586Z,13.57
2017-09-23T13:44:31.730Z,10.90
2017-09-23T13:47:00.104Z,11.00
2017-09-23T13:49:28.790Z,10.27
2017-09-23T13:51:57.155Z,9.43
2017-09-23T13:54:26.278Z,14.47
2017-09-23T13:56:55.420Z,9.90
2017-09-23T13:59:25.123Z,9.43
2017-09-23T14:01:54.257Z,9.17
2017-09-23T14:04:23.045Z,8.87
2017-09-23T14:06:52.054Z,8.90
2017-09-23T14:09:20.405Z,8.50
2017-09-23T14:11:49.288Z,8.40
2017-09-23T14:14:17.616Z,8.50
2017-09-23T14:16:45.976Z,8.30
2017-09-23T14:19:14.763Z,8.30
2017-09-23T14:21:43.118Z,7.57
2017-09-23T14:24:11.519Z,7.43
2017-09-23T14:26:41.017Z,7.90
2017-09-23T14:29:10.063Z,7.00
2017-09-23T14:31:38.416Z,7.77
2017-09-23T14:34:07.098Z,8.20
2017-09-23T14:36:36.156Z,8.03
2017-09-23T14:39:04.515Z,8.33
2017-09-23T14:41:34.339Z,8.43
2017-09-23T14:44:02.675Z,8.10
2017-09-23T14:46:31.924Z,8.63
2017-09-23T14:49:00.703Z,7.50
2017-09-23T14:51:29.046Z,8.10
2017-09-23T14:53:57.401Z,9.37
2017-09-23T14:56:26.974Z,10.33
2017-09-23T14:58:56.094Z,10.40
2017-09-23T15:01:24.452Z,11.60
2017-09-23T15:03:53.191Z,13.10
2017-09-23T15:06:21.540Z,11.53
2017-09-23T15:08:49.909Z,11.30
2017-09-23T15:11:18.834Z,12.10
2017-09-23T15:13:47.196Z,11.40
2017-09-23T15:16:15.547Z,10.63
2017-09-23T15:18:44.409Z,10.67
2017-09-23T15:21:12.806Z,11.03
2017-09-23T15:23:42.504Z,9.90
2017-09-23T15:26:11.768Z,9.70
2017-09-23T15:28:40.496Z,10.50
2017-09-23T15:31:09.613Z,11.00
2017-09-23T15:33:38.391Z,8.20
2017-09-23T15:36:06.736Z,8.50
2017-09-23T15:38:35.086Z,8.70
2017-09-23T15:41:03.901Z,7.77
2017-09-23T15:43:33.271Z,8.13
2017-09-23T15:46:01.618Z,8.27
2017-09-23T15:48:30.317Z,8.70
2017-09-23T15:50:59.119Z,7.90
2017-09-23T15:53:27.537Z,8.00
2017-09-23T15:55:56.253Z,8.07
2017-09-23T15:58:25.373Z,8.30
2017-09-23T16:00:53.820Z,7.77
2017-09-23T16:03:22.750Z,7.33
2017-09-23T16:05:51.134Z,7.23
2017-09-23T16:08:19.497Z,6.60
2017-09-23T16:10:50.135Z,6.83
2017-09-23T16:13:18.473Z,6.67
2017-09-23T16:15:47.497Z,6.00
2017-09-23T16:18:16.198Z,6.77
2017-09-23T16:20:44.557Z,6.40
2017-09-23T16:23:13.692Z,5.40
2017-09-23T16:25:42.323Z,6.30
2017-09-23T16:28:11.517Z,6.60
2017-09-23T16:30:39.865Z,6.37
2017-09-23T16:33:08.685Z,6.37
2017-09-23T16:35:37.074Z,7.50
2017-09-23T16:38:06.431Z,7.03
2017-09-23T16:40:35.187Z,7.30
2017-09-23T16:43:03.542Z,7.63
2017-09-23T16:45:31.924Z,8.17
2017-09-23T16:48:01.238Z,8.30
2017-09-23T16:50:30.213Z,8.27
2017-09-23T16:52:58.565Z,7.30
2017-09-23T16:55:27.628Z,7.73
2017-09-23T16:57:55.981Z,8.40
2017-09-23T17:00:24.322Z,9.90
2017-09-23T17:02:52.992Z,9.10
2017-09-23T17:05:21.347Z,7.93
2017-09-23T17:07:49.699Z,8.00
2017-09-23T17:10:19.233Z,6.97
2017-09-23T17:12:47.705Z,8.63
2017-09-23T17:15:17.043Z,7.33
2017-09-23T17:17:45.983Z,8.20
2017-09-23T17:20:15.096Z,7.60
2017-09-23T17:22:43.482Z,7.37
2017-09-23T17:25:12.177Z,7.20
2017-09-23T17:27:40.585Z,7.73
2017-09-23T17:30:08.975Z,7.77
2017-09-23T17:32:37.716Z,7.30
2017-09-23T17:35:06.173Z,7.07
2017-09-23T17:37:35.282Z,8.17
2017-09-23T17:40:04.910Z,8.00
2017-09-23T17:42:33.274Z,6.70
2017-09-23T17:45:02.452Z,7.27
2017-09-23T17:47:31.377Z,7.47
2017-09-23T17:50:00.378Z,6.70
2017-09-23T17:52:29.501Z,6.77
2017-09-23T17:54:58.273Z,7.30
2017-09-23T17:57:26.655Z,7.50
2017-09-23T17:59:55.043Z,8.03
2017-09-23T18:02:23.896Z,7.13
2017-09-23T18:04:52.266Z,8.40
2017-09-23T18:07:21.434Z,9.20
2017-09-23T18:09:50.106Z,7.93
2017-09-23T18:12:18.450Z,8.90
2017-09-23T18:14:47.222Z,9.13
2017-09-23T18:17:16.848Z,8.57
2017-09-23T18:19:45.238Z,9.10
2017-09-23T18:22:13.597Z,9.50
2017-09-23T18:24:42.465Z,8.27
2017-09-23T18:27:12.659Z,9.50
2017-09-23T18:29:41.039Z,9.57
2017-09-23T18:32:09.701Z,9.63
2017-09-23T18:34:38.078Z,8.90
2017-09-23T18:37:06.451Z,10.30
2017-09-23T18:39:35.214Z,9.50
2017-09-23T18:42:03.690Z,10.17
2017-09-23T18:44:32.082Z,10.63
2017-09-23T18:47:01.896Z,9.80
2017-09-23T18:49:30.267Z,10.03
2017-09-23T18:51:58.673Z,10.30
2017-09-23T18:54:27.539Z,10.93
2017-09-23T18:56:55.948Z,10.27
2017-09-23T18:59:24.327Z,10.50
2017-09-23T19:01:53.065Z,9.73
2017-09-23T19:04:21.431Z,10.80
2017-09-23T19:06:49.844Z,10.77
2017-09-23T19:09:20.221Z,11.73
2017-09-23T19:11:48.798Z,11.30
2017-09-23T19:14:17.895Z,11.27
2017-09-23T19:16:46.569Z,10.03
2017-09-23T19:19:14.961Z,10.43
2017-09-23T19:21:43.339Z,10.60
2017-09-23T19:24:12.113Z,10.67
2017-09-23T19:26:40.463Z,10.57
2017-09-23T19:29:08.819Z,9.47
2017-09-23T19:31:38.382Z,11.03
2017-09-23T19:34:06.741Z,10.20
2017-09-23T19:36:35.099Z,10.77
2017-09-23T19:39:04.526Z,9.57
2017-09-23T19:41:32.990Z,9.53
2017-09-23T19:44:02.103Z,9.37
2017-09-23T19:46:30.956Z,9.43
2017-09-23T19:49:00.012Z,9.57
2017-09-23T19:51:28.372Z,12.27
2017-09-23T19:53:57.291Z,9.93
2017-09-23T19:56:25.633Z,9.47
2017-09-23T19:58:54.038Z,8.43
2017-09-23T20:01:22.933Z,11.70
2017-09-23T20:03:51.850Z,11.93
2017-09-23T20:06:21.682Z,10.83
2017-09-23T20:08:50.353Z,10.57
2017-09-23T20:11:18.715Z,11.17
2017-09-23T20:13:47.077Z,11.40
2017-09-23T20:16:16.706Z,10.60
2017-09-23T20:18:45.063Z,10.97
2017-09-23T20:21:13.457Z,12.20
2017-09-23T20:23:42.182Z,10.70
2017-09-23T20:26:12.121Z,11.53
2017-09-23T20:28:41.206Z,12.17
2017-09-23T20:31:10.870Z,11.70
2017-09-23T20:33:39.243Z,11.93
2017-09-23T20:36:07.608Z,10.20
2017-09-23T20:38:36.396Z,11.00
2017-09-23T20:41:04.752Z,11.47
2017-09-23T20:43:33.154Z,11.63
2017-09-23T20:46:02.364Z,10.97
2017-09-23T20:48:30.766Z,11.20
2017-09-23T20:50:59.125Z,11.57
2017-09-23T20:53:29.263Z,11.03
2017-09-23T20:55:58.383Z,11.57
2017-09-23T20:58:27.517Z,11.27
2017-09-23T21:00:56.463Z,10.80
2017-09-23T21:03:25.606Z,11.50
2017-09-23T21:05:54.616Z,10.50
2017-09-23T21:08:23.861Z,11.27
2017-09-23T21:10:53.324Z,10.73
2017-09-23T21:13:22.258Z,10.93
2017-09-23T21:15:51.476Z,10.47
2017-09-23T21:18:20.583Z,11.43
2017-09-23T21:20:49.714Z,10.80
2017-09-23T21:23:19.547Z,10.50
2017-09-23T21:25:47.898Z,10.23
2017-09-23T21:28:17.142Z,11.50
2017-09-23T21:30:47.351Z,10.10
2017-09-23T21:33:15.702Z,9.03
2017-09-23T21:35:44.053Z,8.90
2017-09-23T21:38:12.971Z,9.50
2017-09-23T21:40:41.359Z,9.00
2017-09-23T21:43:10.296Z,8.83
2017-09-23T21:45:39.211Z,8.97
2017-09-23T21:48:08.190Z,9.10
2017-09-23T21:50:37.318Z,9.80
2017-09-23T21:53:06.123Z,8.90
2017-09-23T21:55:34.485Z,8.90
2017-09-23T21:58:02.865Z,8.90
2017-09-23T22:00:31.740Z,9.20
2017-09-23T22:03:00.119Z,8.50
2017-09-23T22:05:29.269Z,9.50
2017-09-23T22:07:58.427Z,8.50
2017-09-23T22:10:26.770Z,9.00
2017-09-23T22:12:55.901Z,10.43
2017-09-23T22:15:24.625Z,9.43
2017-09-23T22:17:53.628Z,8.90
2017-09-23T22:20:22.331Z,8.43
2017-09-23T22:22:51.819Z,8.47
2017-09-23T22:25:21.001Z,8.90
2017-09-23T22:27:50.017Z,9.00
2017-09-23T22:30:18.869Z,8.70
2017-09-23T22:32:47.258Z,9.60
2017-09-23T22:35:15.692Z,9.20
2017-09-23T22:37:45.111Z,9.33
2017-09-23T22:40:13.443Z,9.10
2017-09-23T22:42:41.834Z,9.30
2017-09-23T22:45:10.813Z,10.30
2017-09-23T22:47:39.165Z,9.50
2017-09-23T22:50:08.308Z,9.77
2017-09-23T22:52:38.297Z,11.60
2017-09-23T22:55:07.083Z,10.30
2017-09-23T22:57:36.242Z,10.73
2017-09-23T23:00:05.147Z,9.83
2017-09-23T23:02:33.569Z,11.07
2017-09-23T23:05:02.793Z,11.70
2017-09-23T23:07:31.857Z,11.20
2017-09-23T23:10:00.274Z,11.93
2017-09-23T23:12:30.029Z,12.70
2017-09-23T23:14:58.957Z,12.37
2017-09-23T23:17:27.304Z,11.90
2017-09-23T23:19:55.739Z,12.07
2017-09-23T23:22:24.539Z,12.60
2017-09-23T23:24:52.921Z,12.27
2017-09-23T23:27:21.290Z,13.90
2017-09-23T23:29:50.685Z,13.83
2017-09-23T23:32:19.783Z,14.10
2017-09-23T23:34:49.536Z,13.80
2017-09-23T23:37:18.526Z,13.50
2017-09-23T23:39:48.105Z,14.50
2017-09-23T23:42:17.706Z,14.50
2017-09-23T23:44:46.841Z,13.33
2017-09-23T23:47:15.186Z,15.60
2017-09-23T23:49:44.597Z,14.63
2017-09-23T23:52:14.123Z,15.10
2017-09-23T23:54:42.476Z,15.40
2017-09-23T23:57:10.853Z,15.37
2017-09-23T23:59:40.414Z,16.07
